sensor_id;sensor_type;location;lat;lon;timestamp;temperature;humidity
29255;DHT22;16277;48.890;2.306;2022-12-20T04:43:48;14.90;99.90
29255;DHT22;16277;48.890;2.306;2022-12-20T04:58:55;14.90;99.90
29255;DHT22;16277;48.890;2.306;2022-12-20T05:14:02;14.90;99.90
29255;DHT22;16277;48.890;2.306;2022-12-20T05:29:06;14.90;99.90
29255;DHT22;16277;48.890;2.306;2022-12-20T05:44:11;15.00;99.90
29255;DHT22;16277;48.890;2.306;2022-12-20T05:59:21;15.00;99.90
29255;DHT22;16277;48.890;2.306;2022-12-20T06:14:25;14.90;99.90
29255;DHT22;16277;48.890;2.306;2022-12-20T06:29:32;14.70;99.90
29255;DHT22;16277;48.890;2.306;2022-12-20T06:44:43;14.80;99.90
29255;DHT22;16277;48.890;2.306;2022-12-20T06:59:47;14.90;99.90
29255;DHT22;16277;48.890;2.306;2022-12-20T07:14:52;15.10;99.90
29255;DHT22;16277;48.890;2.306;2022-12-20T07:29:57;14.90;99.90
29255;DHT22;16277;48.890;2.306;2022-12-20T07:45:01;15.00;99.90
29255;DHT22;16277;48.890;2.306;2022-12-20T08:00:08;15.20;99.90
29255;DHT22;16277;48.890;2.306;2022-12-20T08:15:16;15.10;99.90
29255;DHT22;16277;48.890;2.306;2022-12-20T08:30:21;15.20;99.90
29255;DHT22;16277;48.890;2.306;2022-12-20T08:45:27;15.30;99.90
29255;DHT22;16277;48.890;2.306;2022-12-20T09:00:32;15.10;99.90
29255;DHT22;16277;48.890;2.306;2022-12-20T09:15:36;15.20;99.90
29255;DHT22;16277;48.890;2.306;2022-12-20T09:30:41;15.40;99.90
29255;DHT22;16277;48.890;2.306;2022-12-20T09:45:49;15.30;99.90
29255;DHT22;16277;48.890;2.306;2022-12-20T10:00:54;14.70;99.90
29255;DHT22;16277;48.890;2.306;2022-12-20T10:16:06;14.60;99.90
29255;DHT22;16277;48.890;2.306;2022-12-20T10:31:18;14.30;99.90
29255;DHT22;16277;48.890;2.306;2022-12-20T10:46:23;14.50;99.90
29255;DHT22;16277;48.890;2.306;2022-12-20T11:01:43;14.50;99.90
29255;DHT22;16277;48.890;2.306;2022-12-20T11:16:50;15.00;99.90
29255;DHT22;16277;48.890;2.306;2022-12-20T11:32:01;14.70;99.90
29255;DHT22;16277;48.890;2.306;2022-12-20T11:47:32;14.90;99.90
29255;DHT22;16277;48.890;2.306;2022-12-20T12:02:44;15.00;99.90
29255;DHT22;16277;48.890;2.306;2022-12-20T12:18:04;15.10;99.90
29255;DHT22;16277;48.890;2.306;2022-12-20T12:33:14;15.10;99.90
29255;DHT22;16277;48.890;2.306;2022-12-20T12:48:32;15.30;99.90
29255;DHT22;16277;48.890;2.306;2022-12-20T13:03:44;15.00;99.90
29255;DHT22;16277;48.890;2.306;2022-12-20T13:19:09;15.10;99.90
29255;DHT22;16277;48.890;2.306;2022-12-20T13:34:37;14.40;99.90
29255;DHT22;16277;48.890;2.306;2022-12-20T13:49:42;14.90;99.90
29255;DHT22;16277;48.890;2.306;2022-12-20T14:04:55;15.10;99.90
29255;DHT22;16277;48.890;2.306;2022-12-20T14:20:11;15.00;99.90
29255;DHT22;16277;48.890;2.306;2022-12-20T14:35:19;14.80;99.90
29255;DHT22;16277;48.890;2.306;2022-12-20T14:50:28;14.80;99.90
29255;DHT22;16277;48.890;2.306;2022-12-20T15:05:44;14.90;99.90
29255;DHT22;16277;48.890;2.306;2022-12-20T15:20:59;14.80;99.90
29255;DHT22;16277;48.890;2.306;2022-12-20T15:36:04;14.70;99.90
29255;DHT22;16277;48.890;2.306;2022-12-20T15:51:14;14.40;99.90
29255;DHT22;16277;48.890;2.306;2022-12-20T16:06:19;14.60;99.90
29255;DHT22;16277;48.890;2.306;2022-12-20T16:21:27;14.10;99.90
29255;DHT22;16277;48.890;2.306;2022-12-20T16:36:33;14.60;99.90
29255;DHT22;16277;48.890;2.306;2022-12-20T16:51:42;14.50;99.90
29255;DHT22;16277;48.890;2.306;2022-12-20T17:06:47;14.30;99.90
29255;DHT22;16277;48.890;2.306;2022-12-20T17:21:52;14.70;99.90
29255;DHT22;16277;48.890;2.306;2022-12-20T17:37:14;14.90;99.90
29255;DHT22;16277;48.890;2.306;2022-12-20T17:52:19;15.00;99.90
29255;DHT22;16277;48.890;2.306;2022-12-20T18:07:24;14.90;99.90
29255;DHT22;16277;48.890;2.306;2022-12-20T18:22:29;14.90;99.90
29255;DHT22;16277;48.890;2.306;2022-12-20T18:37:36;14.90;99.90
29255;DHT22;16277;48.890;2.306;2022-12-20T18:52:40;14.90;99.90
29255;DHT22;16277;48.890;2.306;2022-12-20T19:07:50;14.70;99.90
29255;DHT22;16277;48.890;2.306;2022-12-20T19:22:55;14.80;99.90
29255;DHT22;16277;48.890;2.306;2022-12-20T19:38:00;14.80;99.90
29255;DHT22;16277;48.890;2.306;2022-12-20T19:53:04;14.50;99.90
29255;DHT22;16277;48.890;2.306;2022-12-20T20:08:09;14.80;99.90
29255;DHT22;16277;48.890;2.306;2022-12-20T20:23:14;14.70;99.90
29255;DHT22;16277;48.890;2.306;2022-12-20T20:38:19;14.80;99.90
29255;DHT22;16277;48.890;2.306;2022-12-20T20:53:23;15.00;99.90
29255;DHT22;16277;48.890;2.306;2022-12-20T21:08:35;14.80;99.90
